Saturday, November 18, 2017, 11:13 PM GMT
Back to Local

CYQI, Yarmouth, N. S.

Location: , , Canada Lat: 43.833
Local Time: 11:13 PM GMT (23:13 GMT) Lon: -66.083
Time Zone: GMT Elev: 141 ft

Show me the last for .
Show Decoded

2017-11-18 23:00 METAR CYQI 182300Z 23004KT 15SM OVC130 04/00 A2981 RMK AS8 SLP099 =
2017-11-18 22:00 METAR CYQI 182200Z 11004KT 100V250 15SM OVC140 03/M00 A2979 RMK AS8 PRESFR
                 SLP091 =
2017-11-18 21:00 METAR CYQI 182100Z 29005KT 15SM BKN150 OVC210 04/00 A2983 RMK AS7CI1 SLP103 =
2017-11-18 20:00 METAR CYQI 182000Z 31006KT 15SM FEW150 BKN210 04/M00 A2981 RMK AC1CI6 AC TR
                 SLP099 =
2017-11-18 19:00 METAR CYQI 181900Z 31009KT 15SM FEW018 SCT210 05/M00 A2982 RMK SC1CI3 SC TR
                 SLP101 =
2017-11-18 18:00 METAR CYQI 181800Z 30012KT 15SM FEW018 SCT210 05/M00 A2983 RMK SC2CI1 SLP103 =
2017-11-18 17:00 METAR CYQI 181700Z 31012KT 15SM SCT018 SCT210 04/M01 A2983 RMK SC4CI1 CI TR
                 SLP105 =
2017-11-18 16:00 METAR CYQI 181600Z 32016KT 15SM BKN018 04/M01 A2985 RMK SC5 SLP111 =
2017-11-18 15:00 METAR CYQI 181500Z 32013G21KT 15SM BKN018 03/M02 A2986 RMK SC5 SLP113 =
2017-11-18 14:00 METAR CYQI 181400Z 33015KT 15SM BKN016 02/M02 A2985 RMK SC7 SLP113 =
2017-11-18 13:00 METAR CYQI 181300Z 35011G18KT 15SM BKN018 02/M02 A2984 RMK SC7 SLP110 =
2017-11-18 12:00 METAR CYQI 181200Z 33016G23KT 15SM BKN018 01/M03 A2983 RMK SC6 SLP106 =
2017-11-18 11:00 METAR CYQI 181100Z 32016G24KT 15SM OVC018 01/M03 A2981 RMK SC8 SLP098 =
2017-11-18 10:00 METAR CYQI 181000Z 32020KT 15SM OVC021 01/M03 A2981 RMK SC8 SLP096 =
2017-11-18 09:00 METAR CYQI 180900Z 32016G25KT 15SM OVC022 01/M03 A2980 RMK SC8 SLP095 =
2017-11-18 08:00 METAR CYQI 180800Z 31019G29KT 15SM OVC020 01/M03 A2977 RMK SC8 SLP085 =
2017-11-18 07:00 METAR CYQI 180700Z 32020G31KT 15SM OVC021 01/M03 A2975 RMK SC8 SLP078 =
2017-11-18 06:00 METAR CYQI 180600Z 32018G28KT 15SM OVC022 01/M03 A2976 RMK SC8 SLP079 =
2017-11-18 05:00 METAR CYQI 180500Z 32018G31KT 15SM OVC020 01/M03 A2973 RMK SC8 SLP072 =
2017-11-18 04:00 METAR CYQI 180400Z 33017G27KT 15SM OVC022 01/M03 A2972 RMK SC8 SLP068 =
2017-11-18 03:00 METAR CYQI 180300Z 31020G31KT 15SM OVC021 02/M02 A2973 RMK SC8 SLP069 =
2017-11-18 02:00 METAR CYQI 180200Z 32020G30KT 15SM OVC022 02/M03 A2971 RMK SC8 SLP062 =
2017-11-18 01:00 METAR CYQI 180100Z 32020G29KT 15SM OVC022 03/M02 A2968 RMK SC8 SLP054 =
2017-11-18 00:00 METAR CYQI 180000Z 32022G35KT 12SM OVC025 03/M02 A2968 RMK SC8 SLP054 =

Support USWX by starting your Amazon purchase here.